Time;durP1;ratioP1;P1;durP2;ratioP2;P2;SDS_P1;SDS_P2;PMS_P1;PMS_P2;Temp;Humidity;BMP_temperature;BMP_pressure;BME280_temperature;BME280_humidity;BME280_pressure;Samples;Min_cycle;Max_cycle;Signal;HPM_P1;HPM_P2
2023/01/14 00:01:21;;;;;;;16.02;4.70;;;;;;;11.63;57.68;101354.16;6181820;23;20040;-66
2023/01/14 00:03:49;;;;;;;20.45;5.18;;;;;;;11.62;57.65;101348.88;6155818;23;20021;-66
2023/01/14 00:06:18;;;;;;;19.40;5.25;;;;;;;11.58;57.66;101355.44;6181866;23;20024;-66
2023/01/14 00:08:45;;;;;;;18.30;5.05;;;;;;;11.55;57.64;101353.81;6182055;22;20017;-66
2023/01/14 00:11:14;;;;;;;13.90;5.07;;;;;;;11.54;57.65;101348.53;6181695;23;20066;-66
2023/01/14 00:13:41;;;;;;;17.45;5.05;;;;;;;11.53;57.70;101352.19;6181617;23;20052;-66
2023/01/14 00:16:12;;;;;;;13.95;4.45;;;;;;;11.53;57.70;101357.56;6155616;23;20022;-65
2023/01/14 00:18:39;;;;;;;22.95;5.35;;;;;;;11.52;57.69;101361.22;6181822;23;20665;-65
2023/01/14 00:21:10;;;;;;;18.45;4.57;;;;;;;11.49;57.99;101372.19;6181985;23;20088;-65
2023/01/14 00:23:37;;;;;;;20.52;5.30;;;;;;;11.49;58.05;101370.34;6156101;23;20165;-65
2023/01/14 00:26:11;;;;;;;26.65;4.88;;;;;;;11.49;58.07;101377.56;6182247;23;20104;-65
2023/01/14 00:28:38;;;;;;;19.65;5.68;;;;;;;11.48;57.86;101382.09;6182565;23;20071;-65
2023/01/14 00:31:09;;;;;;;21.77;5.25;;;;;;;11.48;57.88;101381.22;6182013;23;20032;-65
2023/01/14 00:33:37;;;;;;;14.30;5.00;;;;;;;11.49;57.87;101382.94;6181542;23;20021;-65
2023/01/14 00:36:06;;;;;;;16.48;5.07;;;;;;;11.49;57.95;101391.00;6155789;22;20403;-65
2023/01/14 00:38:34;;;;;;;18.33;4.60;;;;;;;11.47;58.09;101391.13;6181902;23;20040;-65
2023/01/14 00:41:09;;;;;;;21.80;4.97;;;;;;;11.48;57.91;101390.16;6182273;23;20017;-66
2023/01/14 00:43:43;;;;;;;18.30;5.15;;;;;;;11.48;57.99;101368.63;6181886;23;20040;-65
2023/01/14 00:46:14;;;;;;;18.75;4.85;;;;;;;11.49;57.93;101373.06;6181839;23;20470;-65
2023/01/14 00:48:42;;;;;;;18.65;5.00;;;;;;;11.49;57.83;101380.25;6155510;23;20017;-65
2023/01/14 00:51:09;;;;;;;12.60;4.93;;;;;;;11.49;57.88;101382.94;6155586;22;20017;-66
2023/01/14 00:53:37;;;;;;;16.30;4.38;;;;;;;11.46;58.04;101387.56;6181507;23;20095;-65
2023/01/14 00:56:04;;;;;;;12.63;5.25;;;;;;;11.44;58.01;101385.94;6181758;23;20092;-65
2023/01/14 00:58:30;;;;;;;17.27;5.20;;;;;;;11.43;57.91;101382.38;6155381;23;20070;-66
2023/01/14 01:00:58;;;;;;;15.57;4.35;;;;;;;11.40;57.83;101381.72;6181986;23;20378;-66
2023/01/14 01:03:25;;;;;;;15.13;4.05;;;;;;;11.39;57.93;101386.25;6181360;23;20013;-65
2023/01/14 01:05:52;;;;;;;14.82;5.38;;;;;;;11.38;57.94;101389.03;6181772;23;20017;-66
2023/01/14 01:08:20;;;;;;;12.75;4.20;;;;;;;11.35;57.60;101391.94;6181789;23;20398;-66
2023/01/14 01:10:51;;;;;;;16.83;4.80;;;;;;;11.31;57.42;101391.25;6181991;23;20017;-65
2023/01/14 01:13:19;;;;;;;16.88;4.18;;;;;;;11.26;57.55;101401.47;6181356;23;20388;-66
2023/01/14 01:15:45;;;;;;;17.38;4.75;;;;;;;11.24;57.48;101402.53;6181726;23;20024;-65
2023/01/14 01:18:13;;;;;;;20.98;5.32;;;;;;;11.21;57.70;101406.28;6181524;23;20017;-65
2023/01/14 01:20:40;;;;;;;24.33;5.75;;;;;;;11.17;57.40;101401.19;6181917;23;20320;-66
2023/01/14 01:23:11;;;;;;;18.63;4.97;;;;;;;11.12;57.80;101402.31;6181898;22;20121;-66
2023/01/14 01:25:37;;;;;;;21.98;5.28;;;;;;;11.11;57.58;101405.09;6181561;23;20088;-66
2023/01/14 01:28:05;;;;;;;16.77;4.53;;;;;;;11.09;57.47;101410.59;6155360;23;20017;-65
2023/01/14 01:30:32;;;;;;;25.17;6.60;;;;;;;11.06;57.76;101393.78;6155170;23;20070;-65
2023/01/14 01:33:01;;;;;;;18.95;5.70;;;;;;;11.03;57.43;101397.53;6181303;22;20017;-66
2023/01/14 01:35:27;;;;;;;27.08;5.20;;;;;;;10.99;57.83;101398.69;6155401;23;20436;-65
2023/01/14 01:37:54;;;;;;;24.05;5.47;;;;;;;10.97;57.90;101389.88;6181497;23;20040;-65
2023/01/14 01:40:20;;;;;;;24.42;5.65;;;;;;;10.93;57.78;101392.84;6155316;23;20096;-66
2023/01/14 01:42:57;;;;;;;21.48;5.35;;;;;;;10.89;57.96;101388.63;6181630;23;20021;-65
2023/01/14 01:45:30;;;;;;;20.58;6.80;;;;;;;10.83;57.66;101393.44;6155473;22;20070;-65
2023/01/14 01:48:10;;;;;;;25.67;5.78;;;;;;;10.82;57.90;101398.91;6181579;23;20037;-65
2023/01/14 01:50:37;;;;;;;21.00;5.13;;;;;;;10.82;57.75;101385.47;6181863;23;20047;-65
2023/01/14 01:53:05;;;;;;;15.77;5.40;;;;;;;10.80;57.99;101382.88;6181498;23;20066;-65
2023/01/14 01:55:36;;;;;;;23.42;6.03;;;;;;;10.79;58.14;101382.97;6181123;23;20017;-64
2023/01/14 01:58:05;;;;;;;17.80;5.32;;;;;;;10.75;57.95;101382.31;6181577;23;20024;-66
2023/01/14 02:00:31;;;;;;;22.38;5.28;;;;;;;10.71;57.84;101383.47;6181565;23;20013;-65
2023/01/14 02:03:06;;;;;;;29.67;7.18;;;;;;;10.68;58.05;101393.53;6181326;23;20447;-66
2023/01/14 02:05:33;;;;;;;22.27;5.50;;;;;;;10.64;58.11;101392.00;6154908;22;20104;-66
2023/01/14 02:08:00;;;;;;;27.92;6.63;;;;;;;10.61;58.12;101392.19;6181092;23;20390;-65
2023/01/14 02:10:53;;;;;;;21.95;5.55;;;;;;;10.56;58.21;101387.13;6155006;23;20439;-66
2023/01/14 02:13:38;;;;;;;24.30;5.70;;;;;;;10.56;58.32;101386.25;6168820;23;20025;-65
2023/01/14 02:16:25;;;;;;;30.17;6.25;;;;;;;10.53;58.46;101383.75;6154880;23;20025;-66
2023/01/14 02:19:16;;;;;;;25.30;6.53;;;;;;;10.51;58.22;101375.81;6154999;23;20021;-66
2023/01/14 02:22:02;;;;;;;22.65;5.22;;;;;;;10.50;58.35;101374.06;6181671;23;20040;-65
2023/01/14 02:24:47;;;;;;;21.50;5.28;;;;;;;10.50;58.53;101371.38;6181206;23;20108;-65
2023/01/14 02:27:15;;;;;;;23.55;5.93;;;;;;;10.52;58.52;101363.22;6155107;23;20013;-65
2023/01/14 02:29:45;;;;;;;28.08;5.47;;;;;;;10.52;58.60;101360.53;6154861;23;20060;-66
2023/01/14 02:32:29;;;;;;;22.83;6.03;;;;;;;10.49;58.43;101345.50;6155007;23;20047;-65
2023/01/14 02:35:20;;;;;;;23.60;5.53;;;;;;;10.47;58.61;101334.84;6155311;23;20029;-65
2023/01/14 02:38:12;;;;;;;25.45;8.07;;;;;;;10.46;58.53;101326.88;6181119;23;20396;-65
2023/01/14 02:40:49;;;;;;;26.25;5.45;;;;;;;10.45;58.59;101325.16;6154994;23;20021;-65
2023/01/14 02:46:23;;;;;;;23.02;5.85;;;;;;;10.45;58.63;101311.72;6154874;23;20040;-66
2023/01/14 02:48:51;;;;;;;22.37;4.73;;;;;;;10.45;58.60;101303.69;6154788;23;20365;-66
2023/01/14 02:51:19;;;;;;;29.90;7.05;;;;;;;10.43;58.57;101308.28;6154804;23;20336;-66
2023/01/14 02:53:46;;;;;;;21.55;5.88;;;;;;;10.39;58.67;101304.03;6154510;23;20049;-67
2023/01/14 02:56:14;;;;;;;23.20;5.00;;;;;;;10.38;58.42;101299.63;6154743;23;20388;-65
2023/01/14 02:59:15;;;;;;;24.92;5.63;;;;;;;10.34;58.45;101300.78;6181494;23;20020;-65
2023/01/14 03:02:12;;;;;;;21.48;6.80;;;;;;;10.32;58.47;101300.00;6154336;22;20020;-66
2023/01/14 03:05:03;;;;;;;23.55;6.18;;;;;;;10.28;58.56;101304.72;6154732;23;20035;-66
2023/01/14 03:07:35;;;;;;;23.98;5.15;;;;;;;10.24;58.72;101296.94;6181273;23;20407;-65
2023/01/14 03:10:28;;;;;;;16.35;5.07;;;;;;;10.18;58.54;101298.16;6155524;22;20021;-65
2023/01/14 03:13:13;;;;;;;18.38;4.93;;;;;;;10.12;58.60;101302.09;6155794;23;20017;-66
2023/01/14 03:15:54;;;;;;;22.15;5.50;;;;;;;10.06;58.69;101294.41;6156178;23;20100;-66
2023/01/14 03:18:33;;;;;;;18.75;5.65;;;;;;;10.00;58.91;101292.09;6182305;23;20044;-65
2023/01/14 03:21:11;;;;;;;24.98;6.32;;;;;;;9.97;58.84;101283.38;6181763;23;20218;-66
2023/01/14 03:23:46;;;;;;;27.95;7.28;;;;;;;9.98;58.90;101275.25;6155762;23;20020;-65
2023/01/14 03:26:14;;;;;;;21.77;5.20;;;;;;;10.00;58.82;101285.88;6182293;23;20447;-66
2023/01/14 03:28:47;;;;;;;24.42;5.57;;;;;;;9.97;58.94;101286.06;6155959;23;20478;-65
2023/01/14 03:31:22;;;;;;;32.17;6.65;;;;;;;9.93;59.09;101274.66;6155792;23;20451;-65
2023/01/14 03:33:54;;;;;;;28.60;5.85;;;;;;;9.91;59.22;101264.97;6155757;23;20025;-65
2023/01/14 03:36:23;;;;;;;24.17;5.35;;;;;;;9.89;59.07;101267.75;6182576;23;20377;-65
2023/01/14 03:39:13;;;;;;;23.23;7.00;;;;;;;9.89;59.36;101262.41;6155568;22;20044;-66
2023/01/14 03:44:58;;;;;;;29.25;5.78;;;;;;;9.90;59.30;101263.25;6181514;23;20510;-65
2023/01/14 03:47:31;;;;;;;24.80;5.22;;;;;;;9.86;59.42;101260.75;6181758;22;20017;-64
2023/01/14 03:50:01;;;;;;;25.95;6.22;;;;;;;9.83;59.46;101265.47;6182005;23;20062;-66
2023/01/14 03:52:52;;;;;;;29.65;5.40;;;;;;;9.83;59.59;101260.09;6181804;23;20056;-65
2023/01/14 03:55:37;;;;;;;29.92;5.50;;;;;;;9.85;59.88;101255.50;6182225;23;20025;-65
2023/01/14 03:58:15;;;;;;;20.17;5.40;;;;;;;9.85;59.55;101250.13;6182523;22;20009;-66
2023/01/14 04:00:51;;;;;;;22.10;6.07;;;;;;;9.84;59.92;101248.41;6182236;23;20059;-65
2023/01/14 04:03:20;;;;;;;30.27;6.80;;;;;;;9.83;60.02;101242.19;6181889;22;20028;-65
2023/01/14 04:05:47;;;;;;;27.08;6.70;;;;;;;9.85;59.89;101248.31;6182173;23;20386;-66
2023/01/14 04:08:19;;;;;;;31.83;5.78;;;;;;;9.86;59.96;101247.34;6181991;23;20448;-65
2023/01/14 04:10:45;;;;;;;29.70;5.82;;;;;;;9.87;59.79;101242.84;6182298;23;20100;-65
2023/01/14 04:16:00;;;;;;;20.05;5.03;;;;;;;9.91;60.22;101214.00;6182281;23;20028;-65
2023/01/14 04:18:27;;;;;;;24.23;5.45;;;;;;;9.93;60.44;101212.94;6181934;23;20374;-65
2023/01/14 04:20:53;;;;;;;22.50;6.28;;;;;;;9.95;60.31;101205.69;6182042;23;20017;-65
2023/01/14 04:23:20;;;;;;;22.40;5.40;;;;;;;9.99;60.34;101204.53;6181725;23;20021;-65
2023/01/14 04:25:47;;;;;;;19.15;4.28;;;;;;;10.02;60.47;101190.91;6155765;23;20021;-66
2023/01/14 04:28:13;;;;;;;24.10;5.40;;;;;;;10.03;60.51;101194.47;6182307;23;20063;-66
2023/01/14 04:30:41;;;;;;;27.45;5.70;;;;;;;10.03;60.59;101184.59;6181893;23;20439;-65
2023/01/14 04:33:08;;;;;;;23.30;5.47;;;;;;;10.04;60.50;101178.25;6182125;23;20067;-65
2023/01/14 04:35:34;;;;;;;21.40;5.50;;;;;;;10.02;60.53;101180.19;6182195;23;20388;-65
2023/01/14 04:38:01;;;;;;;24.27;5.50;;;;;;;10.03;60.62;101178.34;6182278;23;20017;-65
2023/01/14 04:40:27;;;;;;;19.92;5.30;;;;;;;10.05;60.32;101179.13;6181965;23;20023;-65
2023/01/14 04:42:54;;;;;;;17.27;4.65;;;;;;;10.05;60.49;101176.44;6155378;23;20444;-66
2023/01/14 04:45:20;;;;;;;32.15;6.13;;;;;;;10.07;60.65;101175.38;6181970;23;20025;-66
2023/01/14 04:47:50;;;;;;;21.98;5.60;;;;;;;10.11;60.81;101165.31;6181996;23;20088;-66
2023/01/14 04:50:33;;;;;;;23.83;4.97;;;;;;;10.13;60.64;101158.88;6182299;22;20013;-66
2023/01/14 04:53:26;;;;;;;20.38;4.50;;;;;;;10.14;60.68;101149.88;6182109;23;20017;-66
2023/01/14 04:55:55;;;;;;;25.52;5.80;;;;;;;10.19;60.68;101134.34;6155395;23;20017;-65
2023/01/14 04:58:22;;;;;;;17.45;4.70;;;;;;;10.19;60.43;101145.06;6181661;23;20389;-65
2023/01/14 05:00:50;;;;;;;27.10;5.25;;;;;;;10.19;60.41;101145.06;6181912;23;20017;-65
2023/01/14 05:03:17;;;;;;;18.58;5.00;;;;;;;10.19;60.60;101142.38;6181597;23;20017;-65
2023/01/14 05:05:45;;;;;;;18.92;4.70;;;;;;;10.19;60.37;101136.16;6181920;23;20017;-65
2023/01/14 05:08:12;;;;;;;18.55;4.50;;;;;;;10.17;60.52;101130.88;6181801;23;20017;-65
2023/01/14 05:10:39;;;;;;;18.00;4.28;;;;;;;10.17;60.45;101132.72;6181883;23;20013;-65
2023/01/14 05:13:07;;;;;;;18.77;4.68;;;;;;;10.15;60.43;101132.81;6181798;23;20095;-65
2023/01/14 05:15:40;;;;;;;16.77;4.85;;;;;;;10.16;60.47;101121.13;6181584;23;20021;-66
2023/01/14 05:18:09;;;;;;;14.57;4.28;;;;;;;10.18;60.72;101119.19;6182070;23;20454;-66
2023/01/14 05:20:36;;;;;;;14.23;4.03;;;;;;;10.19;60.84;101115.53;6184983;23;20013;-65
2023/01/14 05:23:06;;;;;;;24.80;5.18;;;;;;;10.19;60.73;101112.88;6187536;23;20028;-66
2023/01/14 05:25:36;;;;;;;21.42;4.82;;;;;;;10.19;60.90;101110.19;6182514;23;20021;-66
2023/01/14 05:28:07;;;;;;;24.70;5.55;;;;;;;10.21;60.71;101098.50;6181640;23;20117;-65
2023/01/14 05:30:33;;;;;;;15.43;4.15;;;;;;;10.21;60.69;101096.69;6182087;23;20044;-65
2023/01/14 05:33:00;;;;;;;26.73;4.68;;;;;;;10.21;60.66;101082.41;6180497;23;20443;-66
2023/01/14 05:35:26;;;;;;;17.75;5.13;;;;;;;10.21;60.85;101083.28;6181596;23;20027;-66
2023/01/14 05:37:53;;;;;;;19.27;4.45;;;;;;;10.23;60.89;101072.44;6181722;23;20017;-65
2023/01/14 05:40:20;;;;;;;16.08;4.47;;;;;;;10.25;60.76;101071.38;6182014;22;20028;-65
2023/01/14 05:45:37;;;;;;;19.10;4.15;;;;;;;10.26;60.84;101054.31;6182096;23;20092;-65
2023/01/14 05:48:05;;;;;;;18.40;4.00;;;;;;;10.27;60.87;101047.09;6181716;23;20063;-65
2023/01/14 05:50:32;;;;;;;15.45;3.60;;;;;;;10.30;60.89;101041.53;6181674;23;20088;-65
2023/01/14 05:52:59;;;;;;;18.38;4.85;;;;;;;10.29;60.76;101035.31;6181319;23;20013;-65
2023/01/14 05:55:27;;;;;;;17.45;4.63;;;;;;;10.31;60.74;101017.28;6181378;23;20060;-66
2023/01/14 05:57:56;;;;;;;20.58;4.80;;;;;;;10.31;60.73;101016.41;6181480;23;20015;-65
2023/01/14 06:08:34;;;;;;;22.58;4.55;;;;;;;10.30;60.74;100988.72;6181702;23;20017;-65
2023/01/14 06:11:01;;;;;;;17.67;4.13;;;;;;;10.30;60.66;100983.34;6181691;23;20009;-66
2023/01/14 06:13:28;;;;;;;16.60;3.90;;;;;;;10.31;60.89;100971.63;6181457;23;20104;-65
2023/01/14 06:15:57;;;;;;;17.38;4.40;;;;;;;10.32;60.89;100970.69;6181478;23;20017;-66
2023/01/14 06:18:24;;;;;;;14.30;4.25;;;;;;;10.34;60.79;100963.38;6181096;23;20443;-65
2023/01/14 06:20:53;;;;;;;21.63;3.92;;;;;;;10.38;60.91;100959.53;6181430;23;20041;-65
2023/01/14 06:23:21;;;;;;;17.20;4.00;;;;;;;10.40;60.66;100959.41;6181622;22;20017;-65
2023/01/14 06:25:49;;;;;;;20.65;4.32;;;;;;;10.41;60.63;100962.03;6181183;23;20044;-66
2023/01/14 06:28:16;;;;;;;13.50;3.88;;;;;;;10.42;60.53;100949.47;6181616;23;20473;-66
2023/01/14 06:30:43;;;;;;;16.02;4.35;;;;;;;10.43;60.64;100951.19;6180948;22;20017;-65
2023/01/14 06:33:10;;;;;;;18.67;4.25;;;;;;;10.44;60.88;100942.16;6181172;23;20021;-65
2023/01/14 06:35:42;;;;;;;14.88;4.43;;;;;;;10.44;60.59;100950.22;6181208;23;20470;-65
2023/01/14 06:38:10;;;;;;;17.45;4.82;;;;;;;10.45;60.58;100931.31;6181148;23;20017;-66
2023/01/14 06:40:38;;;;;;;21.27;4.30;;;;;;;10.48;60.69;100920.38;6181285;23;20025;-66
2023/01/14 06:43:06;;;;;;;18.52;4.05;;;;;;;10.52;60.70;100923.69;6180883;23;20324;-64
2023/01/14 06:45:33;;;;;;;21.60;4.60;;;;;;;10.52;60.85;100918.31;6181678;23;20092;-67
2023/01/14 06:48:00;;;;;;;21.92;4.80;;;;;;;10.55;60.60;100917.25;6182722;23;20017;-66
2023/01/14 06:50:27;;;;;;;21.58;4.72;;;;;;;10.56;60.52;100902.84;6182691;22;20017;-66
2023/01/14 06:52:58;;;;;;;21.38;4.68;;;;;;;10.55;60.47;100898.44;6182484;23;20101;-66
2023/01/14 06:55:25;;;;;;;17.05;3.65;;;;;;;10.57;60.94;100896.53;6182427;23;20025;-66
2023/01/14 06:57:51;;;;;;;20.35;4.63;;;;;;;10.56;60.87;100887.59;6182127;23;20017;-66
2023/01/14 07:00:18;;;;;;;17.55;4.53;;;;;;;10.58;60.75;100874.94;6131335;23;20347;-66
2023/01/14 07:02:45;;;;;;;18.60;4.57;;;;;;;10.56;60.79;100882.22;6182204;23;20068;-66
2023/01/14 07:05:11;;;;;;;20.23;4.97;;;;;;;10.56;60.86;100874.19;6182249;23;20013;-66
2023/01/14 07:07:38;;;;;;;16.00;4.20;;;;;;;10.55;61.04;100871.59;6182271;23;20015;-66
2023/01/14 07:10:05;;;;;;;16.95;4.45;;;;;;;10.56;61.05;100850.00;6181851;23;20108;-67
2023/01/14 07:12:31;;;;;;;20.40;4.25;;;;;;;10.54;61.04;100838.53;6181969;23;20029;-66
2023/01/14 07:14:58;;;;;;;19.23;4.90;;;;;;;10.53;61.20;100836.81;6182274;23;20043;-67
2023/01/14 07:17:24;;;;;;;18.52;5.10;;;;;;;10.51;61.13;100841.41;6182269;23;20321;-65
2023/01/14 07:19:51;;;;;;;16.35;4.13;;;;;;;10.49;61.06;100838.00;6182529;23;20020;-66
2023/01/14 07:22:17;;;;;;;18.90;4.15;;;;;;;10.48;61.22;100823.69;6182043;23;20564;-66
2023/01/14 07:24:44;;;;;;;15.15;4.50;;;;;;;10.48;61.48;100829.06;6182623;23;20017;-66
2023/01/14 07:27:11;;;;;;;19.75;4.50;;;;;;;10.50;61.42;100820.91;6182218;23;20382;-66
2023/01/14 07:29:37;;;;;;;17.73;4.35;;;;;;;10.50;61.56;100812.84;6182209;23;20395;-66
2023/01/14 07:32:04;;;;;;;13.38;3.90;;;;;;;10.51;61.65;100806.50;6181993;23;20439;-66
2023/01/14 07:34:30;;;;;;;16.50;4.13;;;;;;;10.51;61.76;100790.41;6182023;23;20027;-65
2023/01/14 07:36:57;;;;;;;21.45;4.30;;;;;;;10.51;61.80;100782.34;6182012;23;20087;-66
2023/01/14 07:39:23;;;;;;;19.80;4.40;;;;;;;10.52;61.78;100773.31;6181980;23;20017;-65
2023/01/14 07:41:50;;;;;;;19.00;4.35;;;;;;;10.53;61.59;100771.50;6181923;23;20021;-65
2023/01/14 07:44:23;;;;;;;15.98;4.47;;;;;;;10.54;61.95;100763.34;6182202;23;20020;-65
2023/01/14 07:46:54;;;;;;;17.45;4.35;;;;;;;10.55;61.81;100756.13;6182529;23;20017;-66
2023/01/14 07:49:21;;;;;;;17.60;4.60;;;;;;;10.54;61.93;100749.91;6182025;23;20021;-65
2023/01/14 07:51:48;;;;;;;15.70;4.25;;;;;;;10.53;62.08;100745.50;6182215;23;20021;-65
2023/01/14 07:54:17;;;;;;;19.02;4.43;;;;;;;10.54;62.02;100733.78;6182172;23;20021;-67
2023/01/14 07:56:44;;;;;;;18.33;4.00;;;;;;;10.54;62.03;100727.56;6181702;23;20022;-67
2023/01/14 07:59:11;;;;;;;16.17;3.58;;;;;;;10.55;62.16;100718.53;6181925;22;20017;-67
2023/01/14 08:01:37;;;;;;;16.42;4.40;;;;;;;10.55;61.93;100715.84;6181843;23;20470;-66
2023/01/14 08:04:07;;;;;;;17.33;4.30;;;;;;;10.55;62.19;100711.34;6182139;23;20041;-67
2023/01/14 08:06:35;;;;;;;14.20;3.67;;;;;;;10.57;62.60;100693.28;6181367;22;20021;-66
2023/01/14 08:09:02;;;;;;;12.48;3.85;;;;;;;10.59;62.57;100690.50;6180473;23;20466;-66
2023/01/14 08:11:29;;;;;;;10.60;3.78;;;;;;;10.61;62.48;100683.19;6181741;23;20100;-67
2023/01/14 08:13:56;;;;;;;11.85;3.40;;;;;;;10.64;62.57;100670.38;6181935;23;20023;-65
2023/01/14 08:16:22;;;;;;;12.57;3.72;;;;;;;10.67;62.55;100655.88;6181931;23;20446;-65
2023/01/14 08:18:49;;;;;;;10.63;3.42;;;;;;;10.68;62.57;100650.38;6181407;23;20017;-66
2023/01/14 08:21:16;;;;;;;13.35;3.40;;;;;;;10.69;62.80;100643.19;6181431;23;20020;-66
2023/01/14 08:23:43;;;;;;;9.63;3.25;;;;;;;10.70;62.97;100642.22;6181554;23;20100;-66
2023/01/14 08:26:11;;;;;;;15.82;3.65;;;;;;;10.73;62.84;100625.88;6181945;23;20017;-66
2023/01/14 08:28:39;;;;;;;9.38;3.13;;;;;;;10.76;63.09;100621.13;6181531;23;20088;-66
2023/01/14 08:31:12;;;;;;;11.43;3.50;;;;;;;10.79;63.27;100618.19;6181841;23;20443;-66
2023/01/14 08:33:40;;;;;;;10.65;3.20;;;;;;;10.81;63.32;100608.19;6181868;22;20332;-66
2023/01/14 08:36:10;;;;;;;17.02;3.40;;;;;;;10.85;63.07;100599.91;6181697;23;20435;-66
2023/01/14 08:38:39;;;;;;;8.48;2.85;;;;;;;10.86;63.17;100597.09;6181359;23;20452;-69
2023/01/14 08:41:08;;;;;;;8.52;3.22;;;;;;;10.88;63.44;100587.09;6182080;23;20017;-69
2023/01/14 08:43:35;;;;;;;6.53;2.13;;;;;;;10.91;63.28;100577.94;6181291;23;20062;-69
2023/01/14 08:46:03;;;;;;;9.45;2.70;;;;;;;10.94;63.50;100569.66;6181205;22;20032;-68
2023/01/14 08:48:30;;;;;;;7.47;3.20;;;;;;;10.97;63.32;100566.72;6181344;23;20010;-68
2023/01/14 08:51:08;;;;;;;7.07;2.60;;;;;;;11.00;63.67;100556.59;6181182;23;20459;-68
2023/01/14 08:53:36;;;;;;;6.22;2.47;;;;;;;11.03;63.33;100548.28;6181509;23;20024;-68
2023/01/14 08:56:05;;;;;;;7.13;2.55;;;;;;;11.06;63.40;100536.44;6181342;22;20103;-68
2023/01/14 08:58:34;;;;;;;9.77;2.40;;;;;;;11.09;63.44;100536.22;6181514;23;20458;-68
2023/01/14 09:01:04;;;;;;;8.10;2.20;;;;;;;11.13;63.61;100518.88;6179605;23;20423;-68
2023/01/14 09:03:32;;;;;;;8.05;2.30;;;;;;;11.17;63.74;100509.63;6179071;23;20025;-69
2023/01/14 09:06:00;;;;;;;5.88;2.17;;;;;;;11.18;63.54;100495.22;6179324;23;20427;-68
2023/01/14 09:19:53;;;;;;;6.20;1.58;;;;;;;11.32;63.96;100443.88;6180464;23;20083;-68
2023/01/14 09:22:24;;;;;;;6.05;1.80;;;;;;;11.36;63.66;100447.19;6181397;23;20082;-69
2023/01/14 09:24:51;;;;;;;7.18;1.73;;;;;;;11.39;63.84;100453.16;6181535;23;20021;-69
2023/01/14 09:27:19;;;;;;;8.82;2.00;;;;;;;11.41;64.06;100436.91;6181355;23;20018;-68
2023/01/14 09:29:46;;;;;;;6.15;2.13;;;;;;;11.46;63.67;100442.78;6181177;23;20010;-69
2023/01/14 09:32:14;;;;;;;6.95;1.70;;;;;;;11.48;63.99;100435.44;6181471;23;20020;-69
2023/01/14 09:34:47;;;;;;;6.57;1.73;;;;;;;11.50;64.09;100448.75;6181651;23;20016;-68
2023/01/14 09:37:15;;;;;;;2.80;1.63;;;;;;;11.53;63.79;100440.44;6154940;23;20459;-69
2023/01/14 09:39:42;;;;;;;6.32;2.03;;;;;;;11.57;64.12;100436.50;6180780;23;20020;-69
2023/01/14 09:42:15;;;;;;;6.50;1.73;;;;;;;11.59;64.15;100432.72;6181131;23;20037;-69
2023/01/14 09:44:43;;;;;;;8.10;1.80;;;;;;;11.62;64.08;100423.53;6181402;23;20021;-69
2023/01/14 09:47:12;;;;;;;5.25;1.85;;;;;;;11.63;64.22;100403.72;6181276;23;20450;-69
2023/01/14 09:49:40;;;;;;;6.70;2.03;;;;;;;11.65;64.09;100402.63;6181104;23;20091;-70
2023/01/14 09:52:07;;;;;;;5.82;1.60;;;;;;;11.68;63.79;100393.44;6181482;23;20021;-68
2023/01/14 09:54:55;;;;;;;5.85;2.20;;;;;;;11.69;63.90;100390.63;6181563;23;20088;-73
2023/01/14 09:57:32;;;;;;;4.95;1.85;;;;;;;11.71;63.84;100383.28;6181157;23;20338;-70
2023/01/14 10:00:24;;;;;;;7.97;1.85;;;;;;;11.73;63.96;100370.56;6180938;23;20451;-68
2023/01/14 10:03:05;;;;;;;6.13;1.80;;;;;;;11.76;63.99;100353.31;6180942;23;20452;-68
2023/01/14 10:05:33;;;;;;;5.75;1.58;;;;;;;11.77;64.06;100350.53;6181514;23;20017;-68
2023/01/14 10:08:03;;;;;;;6.07;2.00;;;;;;;11.76;63.85;100338.03;6180774;23;20459;-68
2023/01/14 10:10:36;;;;;;;6.05;1.50;;;;;;;11.80;63.85;100337.81;6181153;23;20013;-68
2023/01/14 10:13:09;;;;;;;9.23;1.92;;;;;;;11.80;63.85;100338.66;6181158;23;20020;-68
2023/01/14 10:15:49;;;;;;;6.35;2.15;;;;;;;11.79;64.14;100312.72;6181591;23;20017;-68
2023/01/14 10:18:19;;;;;;;3.10;1.48;;;;;;;11.81;64.21;100313.47;6180385;23;20024;-68
2023/01/14 10:21:01;;;;;;;6.45;1.85;;;;;;;11.84;64.06;100298.88;6181143;23;20020;-68
2023/01/14 10:23:40;;;;;;;6.60;1.90;;;;;;;11.85;64.32;100298.75;6181114;23;20443;-68
2023/01/14 10:26:12;;;;;;;6.80;2.05;;;;;;;11.87;63.98;100287.88;6150748;23;20025;-68
2023/01/14 10:28:39;;;;;;;6.55;2.15;;;;;;;11.90;64.26;100274.19;6180718;23;20020;-68
2023/01/14 10:31:06;;;;;;;8.00;2.03;;;;;;;11.92;64.54;100254.22;6180902;23;20023;-68
2023/01/14 10:33:33;;;;;;;8.00;2.70;;;;;;;11.94;64.37;100246.03;6154891;23;20351;-69
2023/01/14 10:36:04;;;;;;;10.27;2.10;;;;;;;11.93;64.29;100237.09;6180788;23;20520;-67
2023/01/14 10:38:31;;;;;;;7.00;1.80;;;;;;;11.97;64.38;100232.31;6180299;23;20116;-68
2023/01/14 10:41:03;;;;;;;10.27;2.45;;;;;;;11.98;64.39;100220.56;6180843;23;20054;-68
2023/01/14 10:43:50;;;;;;;6.53;2.28;;;;;;;12.04;64.37;100222.72;6180833;22;20067;-68
2023/01/14 10:46:21;;;;;;;9.05;2.10;;;;;;;12.06;64.58;100216.22;6180804;23;20088;-68
2023/01/14 10:49:00;;;;;;;5.63;2.00;;;;;;;12.09;64.49;100212.41;6180589;23;20021;-69
2023/01/14 10:51:34;;;;;;;7.03;2.10;;;;;;;12.11;64.69;100202.34;6181142;23;20100;-70
2023/01/14 10:54:15;;;;;;;4.68;1.70;;;;;;;12.14;64.91;100190.47;6180840;23;20021;-69
2023/01/14 10:56:46;;;;;;;5.70;1.77;;;;;;;12.19;64.37;100174.75;6154826;23;20040;-69
2023/01/14 10:59:22;;;;;;;6.38;1.40;;;;;;;12.21;64.38;100162.88;6154215;22;20321;-68
2023/01/14 11:01:49;;;;;;;8.82;1.60;;;;;;;12.24;64.54;100154.50;6180222;23;20037;-69
2023/01/14 11:04:16;;;;;;;5.40;1.77;;;;;;;12.30;64.40;100153.13;6181119;23;20032;-69
2023/01/14 11:06:43;;;;;;;7.18;2.28;;;;;;;12.30;65.04;100153.97;6180651;23;20024;-68
2023/01/14 11:09:26;;;;;;;4.75;1.90;;;;;;;12.33;64.96;100134.84;6180675;23;20017;-68
2023/01/14 11:11:53;;;;;;;5.80;1.75;;;;;;;12.35;64.58;100124.78;6180206;23;20044;-68
2023/01/14 11:14:35;;;;;;;7.40;1.55;;;;;;;12.37;64.66;100113.88;6180801;23;20013;-68
2023/01/14 11:17:21;;;;;;;3.67;1.63;;;;;;;12.40;64.98;100103.69;6180453;23;20100;-68
2023/01/14 11:19:49;;;;;;;4.45;1.50;;;;;;;12.46;64.91;100087.97;6181481;22;20063;-67
2023/01/14 11:22:16;;;;;;;5.13;2.00;;;;;;;12.48;65.13;100092.22;6180084;23;20037;-67
2023/01/14 11:24:45;;;;;;;4.85;1.73;;;;;;;12.53;65.17;100078.34;6154413;23;20028;-68
2023/01/14 11:27:13;;;;;;;4.38;1.33;;;;;;;12.55;65.11;100082.59;6180493;23;20401;-69
2023/01/14 11:30:00;;;;;;;4.18;1.23;;;;;;;12.57;64.94;100068.97;6179882;23;20017;-68
2023/01/14 11:32:35;;;;;;;2.70;1.10;;;;;;;12.63;65.13;100066.59;6181537;23;20445;-68
2023/01/14 11:35:16;;;;;;;4.05;1.00;;;;;;;12.68;65.07;100058.09;6181972;23;20017;-68
2023/01/14 11:37:47;;;;;;;3.78;1.00;;;;;;;12.71;65.16;100055.97;6181574;23;20009;-69
2023/01/14 11:41:28;;;;;;;3.45;1.13;;;;;;;12.73;65.10;100048.59;6182615;22;20092;-69
2023/01/14 11:43:14;;;;;;;4.03;1.00;;;;;;;12.77;64.96;100041.09;6181596;23;20393;-68
2023/01/14 11:45:41;;;;;;;5.07;0.82;;;;;;;12.78;65.06;100032.00;6182111;23;20017;-68
2023/01/14 11:48:28;;;;;;;1.15;0.80;;;;;;;12.79;64.98;100020.22;6181777;23;20450;-69
2023/01/14 11:50:59;;;;;;;2.95;0.98;;;;;;;12.81;65.14;100018.25;6182255;23;20447;-68
2023/01/14 11:53:42;;;;;;;2.95;1.00;;;;;;;12.82;65.19;99998.38;6181593;23;20013;-68
2023/01/14 11:56:17;;;;;;;1.55;0.80;;;;;;;12.86;64.86;99999.81;6182458;23;20021;-69
2023/01/14 11:58:43;;;;;;;2.42;0.98;;;;;;;12.91;64.86;99996.66;6182111;23;20024;-69
2023/01/14 12:01:32;;;;;;;1.50;0.70;;;;;;;12.92;65.19;99998.38;6182011;23;20443;-68
2023/01/14 12:04:08;;;;;;;3.08;0.70;;;;;;;12.94;65.13;99983.75;6181640;23;20021;-69
2023/01/14 12:06:44;;;;;;;1.85;0.85;;;;;;;12.95;65.23;99966.59;6182029;23;20013;-68
2023/01/14 12:09:27;;;;;;;1.95;0.70;;;;;;;12.96;64.93;99965.59;6182036;23;20013;-69